Time;durP1;ratioP1;P1;durP2;ratioP2;P2;SDS_P1;SDS_P2;PMS_P1;PMS_P2;Temp;Humidity;BMP_temperature;BMP_pressure;BME280_temperature;BME280_humidity;BME280_pressure;Samples;Min_cycle;Max_cycle;Signal;HPM_P1;HPM_P2
2022/01/03 07:02:29;;;;;;;88.25;7.47;;;;;;;;;;4945190;23;20127;-92
2022/01/03 07:04:56;;;;;;;87.40;7.70;;;;;;;;;;4913445;29;20071;-91
2022/01/03 07:07:23;;;;;;;97.35;8.50;;;;;;;;;;4905256;29;20049;-90
2022/01/03 07:09:49;;;;;;;78.65;7.03;;;;;;;;;;4891428;29;20048;-88
2022/01/03 07:12:16;;;;;;;77.55;7.32;;;;;;;;;;4915584;29;20517;-91
2022/01/03 07:19:59;;;;;;;89.20;8.38;;;;;;;;;;4912983;29;20044;-90
2022/01/03 07:22:26;;;;;;;72.10;7.60;;;;;;;;;;4896770;29;20537;-89
2022/01/03 07:24:53;;;;;;;57.88;6.65;;;;;;;;;;4895579;29;20053;-89
2022/01/03 07:27:20;;;;;;;71.13;6.78;;;;;;;;;;4902471;29;20101;-89
2022/01/03 07:29:48;;;;;;;71.85;6.68;;;;;;;;;;4912853;29;20056;-87
2022/01/03 07:32:15;;;;;;;63.70;6.97;;;;;;;;;;4912374;29;20055;-88
2022/01/03 07:34:42;;;;;;;75.50;6.78;;;;;;;;;;4915825;29;20415;-89
2022/01/03 07:37:09;;;;;;;76.65;6.50;;;;;;;;;;4913628;29;20148;-87
2022/01/03 07:39:35;;;;;;;74.53;7.43;;;;;;;;;;4910379;29;20052;-84
2022/01/03 07:42:03;;;;;;;71.70;6.95;;;;;;;;;;4914018;29;20052;-87
2022/01/03 07:44:30;;;;;;;71.45;6.35;;;;;;;;;;4913610;29;20036;-85
2022/01/03 07:46:57;;;;;;;64.43;7.22;;;;;;;;;;4914345;29;20071;-89
2022/01/03 07:49:24;;;;;;;78.88;7.38;;;;;;;;;;4892533;29;20051;-85
2022/01/03 07:51:51;;;;;;;86.18;8.60;;;;;;;;;;4909932;29;20052;-87
2022/01/03 07:54:18;;;;;;;75.22;7.68;;;;;;;;;;4913346;29;20048;-86
2022/01/03 07:56:44;;;;;;;79.22;7.28;;;;;;;;;;4911836;29;20075;-87
2022/01/03 07:59:11;;;;;;;82.47;7.43;;;;;;;;;;4911452;29;20052;-85
2022/01/03 08:01:40;;;;;;;73.80;7.20;;;;;;;;;;4913805;29;20044;-87
2022/01/03 08:04:08;;;;;;;95.80;8.43;;;;;;;;;;4892051;29;20052;-85
2022/01/03 08:06:43;;;;;;;91.80;7.45;;;;;;;;;;4893948;29;20048;-88
2022/01/03 08:09:10;;;;;;;63.60;6.30;;;;;;;;;;4910883;29;20060;-88
2022/01/03 08:11:37;;;;;;;85.72;8.30;;;;;;;;;;4913900;29;20048;-87
2022/01/03 08:14:04;;;;;;;81.13;6.60;;;;;;;;;;4913611;29;20420;-86
2022/01/03 08:16:31;;;;;;;87.20;8.77;;;;;;;;;;4896713;29;20054;-85
2022/01/03 08:18:58;;;;;;;88.97;8.90;;;;;;;;;;4892390;29;20513;-86
2022/01/03 08:21:26;;;;;;;81.65;7.95;;;;;;;;;;4912211;29;20048;-87
2022/01/03 08:23:52;;;;;;;91.35;8.02;;;;;;;;;;4913156;29;20052;-86
2022/01/03 08:26:19;;;;;;;98.07;8.30;;;;;;;;;;4895922;29;20103;-86
2022/01/03 08:28:46;;;;;;;81.13;8.77;;;;;;;;;;4913519;29;20052;-87
2022/01/03 08:31:13;;;;;;;79.53;7.97;;;;;;;;;;4891157;29;20052;-86
2022/01/03 08:33:40;;;;;;;71.97;7.47;;;;;;;;;;4908283;29;20072;-83
2022/01/03 08:36:06;;;;;;;65.50;7.35;;;;;;;;;;4906257;29;20111;-83
2022/01/03 08:38:33;;;;;;;76.50;7.68;;;;;;;;;;4909378;29;20052;-85
2022/01/03 08:41:00;;;;;;;85.28;7.47;;;;;;;;;;4912725;29;20059;-85
2022/01/03 08:43:27;;;;;;;75.85;7.75;;;;;;;;;;4894566;29;20103;-85
2022/01/03 08:45:53;;;;;;;88.07;8.60;;;;;;;;;;4903198;29;20048;-86
2022/01/03 08:48:20;;;;;;;77.30;7.15;;;;;;;;;;4894961;29;20093;-85
2022/01/03 08:50:47;;;;;;;97.13;9.05;;;;;;;;;;4911028;29;20048;-85
2022/01/03 08:53:13;;;;;;;77.88;8.20;;;;;;;;;;4911757;29;20469;-85
2022/01/03 08:55:40;;;;;;;75.43;7.32;;;;;;;;;;4907929;29;20123;-86
2022/01/03 08:58:07;;;;;;;62.22;6.97;;;;;;;;;;4908512;29;20111;-85
2022/01/03 09:00:34;;;;;;;65.63;7.82;;;;;;;;;;4910975;29;20107;-84
2022/01/03 09:03:01;;;;;;;64.97;6.28;;;;;;;;;;4890822;29;20516;-85
2022/01/03 09:05:28;;;;;;;56.08;5.97;;;;;;;;;;4910453;29;20532;-84
2022/01/03 09:07:55;;;;;;;66.90;6.18;;;;;;;;;;4908665;29;20111;-85
2022/01/03 09:10:21;;;;;;;46.55;4.93;;;;;;;;;;4910774;29;20500;-86
2022/01/03 09:12:48;;;;;;;51.08;5.40;;;;;;;;;;4910013;29;20135;-85
2022/01/03 09:15:15;;;;;;;43.17;4.53;;;;;;;;;;4906860;29;20044;-86
2022/01/03 09:17:42;;;;;;;39.65;4.50;;;;;;;;;;4910243;29;20507;-84
2022/01/03 09:20:09;;;;;;;35.05;4.35;;;;;;;;;;4893293;29;20123;-85
2022/01/03 09:22:41;;;;;;;48.75;4.70;;;;;;;;;;4911213;29;20560;-86
2022/01/03 09:30:31;;;;;;;42.17;4.22;;;;;;;;;;4909062;29;20056;-86
2022/01/03 09:32:58;;;;;;;47.08;4.40;;;;;;;;;;4910444;29;20060;-85
2022/01/03 09:35:25;;;;;;;36.33;4.15;;;;;;;;;;4915100;29;20068;-85
2022/01/03 09:37:51;;;;;;;30.95;3.55;;;;;;;;;;4916293;29;20040;-86
2022/01/03 09:40:18;;;;;;;44.53;10.57;;;;;;;;;;4911306;29;20048;-85
2022/01/03 09:42:49;;;;;;;42.45;5.35;;;;;;;;;;4914390;29;20092;-86
2022/01/03 09:45:16;;;;;;;39.88;4.60;;;;;;;;;;4914206;29;20060;-84
2022/01/03 09:47:44;;;;;;;51.20;8.25;;;;;;;;;;4915058;29;20044;-86
2022/01/03 09:50:14;;;;;;;48.45;8.25;;;;;;;;;;4914510;29;20104;-86
2022/01/03 09:52:42;;;;;;;45.60;7.03;;;;;;;;;;4909799;29;20127;-85
2022/01/03 09:55:11;;;;;;;43.13;5.00;;;;;;;;;;4913403;29;20553;-85
2022/01/03 09:57:39;;;;;;;38.20;9.25;;;;;;;;;;4910517;29;20056;-86
2022/01/03 10:00:07;;;;;;;72.40;30.42;;;;;;;;;;4910753;29;20085;-86
2022/01/03 10:02:35;;;;;;;49.30;15.13;;;;;;;;;;4892465;29;20052;-85
2022/01/03 10:05:02;;;;;;;39.78;7.28;;;;;;;;;;4913591;29;20115;-85
2022/01/03 10:07:29;;;;;;;32.35;3.95;;;;;;;;;;4914150;29;20060;-85
2022/01/03 10:09:57;;;;;;;31.88;5.63;;;;;;;;;;4909793;29;20052;-86
2022/01/03 10:12:24;;;;;;;32.08;3.25;;;;;;;;;;4908863;29;20410;-84
2022/01/03 10:14:51;;;;;;;27.40;3.45;;;;;;;;;;4913354;29;20890;-85
2022/01/03 10:17:17;;;;;;;28.50;4.30;;;;;;;;;;4914042;29;20052;-86
2022/01/03 10:20:00;;;;;;;34.33;4.50;;;;;;;;;;4910205;29;20044;-85
2022/01/03 10:22:30;;;;;;;26.98;4.60;;;;;;;;;;4913914;29;20044;-85
2022/01/03 10:24:59;;;;;;;22.02;3.40;;;;;;;;;;4914055;29;20083;-86
2022/01/03 10:27:50;;;;;;;23.25;3.70;;;;;;;;;;4911492;29;20462;-85
2022/01/03 10:30:40;;;;;;;28.25;2.70;;;;;;;;;;4908424;29;20156;-84
2022/01/03 10:33:10;;;;;;;21.67;3.42;;;;;;;;;;4910311;29;20084;-84
2022/01/03 10:35:42;;;;;;;22.52;3.35;;;;;;;;;;4897576;29;20052;-85
2022/01/03 10:38:09;;;;;;;29.00;3.42;;;;;;;;;;4911545;29;20568;-85
2022/01/03 10:40:37;;;;;;;33.08;4.20;;;;;;;;;;4913458;29;20501;-84
2022/01/03 10:43:16;;;;;;;35.97;11.98;;;;;;;;;;4909310;29;20398;-84
2022/01/03 10:45:43;;;;;;;;;;;;;;;;;;4911845;29;20095;-84
2022/01/03 10:48:33;;;;;;;27.30;3.05;;;;;;;;;;4912342;29;19923;-84
2022/01/03 10:51:02;;;;;;;18.08;2.78;;;;;;;;;;4906463;29;20467;-85
2022/01/03 10:53:44;;;;;;;15.48;2.10;;;;;;;;;;4912745;29;20140;-85
2022/01/03 10:56:19;;;;;;;16.83;2.63;;;;;;;;;;4907170;29;20063;-84
2022/01/03 10:59:21;;;;;;;20.75;3.03;;;;;;;;;;4909838;29;20096;-84
2022/01/03 11:02:01;;;;;;;17.38;3.28;;;;;;;;;;4912379;29;20044;-85
2022/01/03 11:13:08;;;;;;;19.67;5.05;;;;;;;;;;4854659;29;20050;-84
2022/01/03 11:15:37;;;;;;;23.67;7.13;;;;;;;;;;4856726;29;20225;-84
2022/01/03 11:18:07;;;;;;;17.80;1.92;;;;;;;;;;4854270;29;20059;-86
2022/01/03 11:20:34;;;;;;;19.70;4.70;;;;;;;;;;4866523;29;20145;-85
2022/01/03 11:23:01;;;;;;;16.58;2.15;;;;;;;;;;4854962;29;20061;-84
2022/01/03 11:25:32;;;;;;;18.77;2.15;;;;;;;;;;4865647;29;20403;-84
2022/01/03 11:28:00;;;;;;;11.82;2.42;;;;;;;;;;4858108;29;20123;-85
2022/01/03 11:30:27;;;;;;;11.68;2.00;;;;;;;;;;4853584;29;20058;-84
2022/01/03 11:32:55;;;;;;;16.27;3.10;;;;;;;;;;4854512;29;20581;-84
2022/01/03 11:35:22;;;;;;;14.30;2.53;;;;;;;;;;4857295;29;20081;-84
2022/01/03 11:37:51;;;;;;;14.25;2.25;;;;;;;;;;4863501;29;20056;-85
2022/01/03 11:40:18;;;;;;;20.63;2.58;;;;;;;;;;4861214;29;20508;-84
2022/01/03 11:42:46;;;;;;;14.05;3.05;;;;;;;;;;4859437;29;20087;-84
2022/01/03 11:45:13;;;;;;;19.30;2.75;;;;;;;;;;4854448;29;20110;-84
2022/01/03 11:47:41;;;;;;;19.05;2.55;;;;;;;;;;4907346;29;20068;-84
2022/01/03 11:50:09;;;;;;;23.85;3.00;;;;;;;;;;4906361;29;20080;-84
2022/01/03 11:52:43;;;;;;;24.95;3.20;;;;;;;;;;4909877;29;20060;-84
2022/01/03 11:55:12;;;;;;;19.42;3.28;;;;;;;;;;4908697;29;20061;-83
2022/01/03 11:58:11;;;;;;;11.93;1.80;;;;;;;;;;4905959;29;20423;-84
2022/01/03 12:04:10;;;;;;;6.68;1.20;;;;;;;;;;4816206;29;20051;-83
2022/01/03 12:06:37;;;;;;;8.52;1.30;;;;;;;;;;4816025;29;20134;-83
2022/01/03 12:09:13;;;;;;;11.18;2.67;;;;;;;;;;4819216;29;20050;-83
2022/01/03 12:11:53;;;;;;;11.27;4.55;;;;;;;;;;4814936;29;20051;-83
2022/01/03 12:14:40;;;;;;;14.10;5.75;;;;;;;;;;4810042;29;20315;-82
2022/01/03 12:17:08;;;;;;;12.37;2.30;;;;;;;;;;4809888;29;20457;-82
2022/01/03 12:19:47;;;;;;;9.38;5.47;;;;;;;;;;4802739;29;20054;-83
2022/01/03 12:22:19;;;;;;;9.47;1.30;;;;;;;;;;4803205;29;20115;-83
2022/01/03 12:24:45;;;;;;;8.07;2.42;;;;;;;;;;4809123;29;20058;-81
2022/01/03 12:27:12;;;;;;;11.82;3.70;;;;;;;;;;4807232;29;20059;-83
2022/01/03 12:29:54;;;;;;;8.32;7.35;;;;;;;;;;4808152;29;20054;-83
2022/01/03 12:32:23;;;;;;;10.63;9.48;;;;;;;;;;4798299;29;20489;-83
2022/01/03 12:35:09;;;;;;;7.05;1.20;;;;;;;;;;4809711;29;20054;-85
2022/01/03 12:37:35;;;;;;;6.05;1.92;;;;;;;;;;4823230;29;20574;-83
2022/01/03 12:40:04;;;;;;;4.57;0.73;;;;;;;;;;4906743;29;20056;-84
2022/01/03 12:42:53;;;;;;;4.05;0.90;;;;;;;;;;4900292;29;20128;-83
2022/01/03 12:45:25;;;;;;;4.38;1.58;;;;;;;;;;4904099;29;20051;-83
2022/01/03 12:47:52;;;;;;;6.85;3.47;;;;;;;;;;4904050;29;20060;-82
2022/01/03 12:50:21;;;;;;;63.47;39.47;;;;;;;;;;4906895;29;20052;-83
2022/01/03 12:52:49;;;;;;;41.97;23.85;;;;;;;;;;4908399;29;20051;-83
2022/01/03 12:55:37;;;;;;;3.72;1.77;;;;;;;;;;4906564;29;20115;-84
2022/01/03 12:58:18;;;;;;;4.03;0.95;;;;;;;;;;4904629;29;20048;-83
2022/01/03 13:00:48;;;;;;;11.15;3.95;;;;;;;;;;4907039;29;20052;-84
2022/01/03 13:03:37;;;;;;;22.52;11.20;;;;;;;;;;4904792;29;20167;-82
2022/01/03 13:06:06;;;;;;;5.50;2.25;;;;;;;;;;4906376;29;20058;-83
2022/01/03 13:08:34;;;;;;;10.90;4.75;;;;;;;;;;4907179;29;20052;-82
2022/01/03 13:11:06;;;;;;;10.60;2.72;;;;;;;;;;4907955;29;20048;-83
2022/01/03 13:13:35;;;;;;;5.72;1.30;;;;;;;;;;4906401;29;20052;-82
2022/01/03 13:16:21;;;;;;;6.38;1.95;;;;;;;;;;4907058;29;20563;-84
2022/01/03 13:18:52;;;;;;;7.57;0.90;;;;;;;;;;4906666;29;20091;-83
2022/01/03 13:21:20;;;;;;;6.65;0.93;;;;;;;;;;4906427;29;20044;-83
2022/01/03 13:23:56;;;;;;;4.80;0.80;;;;;;;;;;4907439;29;20099;-83
2022/01/03 13:26:24;;;;;;;6.07;2.67;;;;;;;;;;4905899;29;20063;-83
2022/01/03 13:28:54;;;;;;;4.32;1.25;;;;;;;;;;4910815;29;20079;-83
2022/01/03 13:31:22;;;;;;;31.15;7.13;;;;;;;;;;4902397;29;20155;-82
2022/01/03 13:34:02;;;;;;;32.42;5.97;;;;;;;;;;4906616;29;20041;-84
2022/01/03 13:36:40;;;;;;;26.02;5.03;;;;;;;;;;4903510;29;20048;-84
2022/01/03 13:39:36;;;;;;;17.98;3.47;;;;;;;;;;4906361;29;20048;-83
2022/01/03 13:42:13;;;;;;;39.00;7.32;;;;;;;;;;4903773;29;20048;-83
2022/01/03 13:50:19;;;;;;;65.15;7.57;;;;;;;;;;4906272;29;20044;-84
2022/01/03 13:52:47;;;;;;;22.90;3.45;;;;;;;;;;4905669;29;20103;-82
2022/01/03 13:55:25;;;;;;;6.25;1.10;;;;;;;;;;4904732;29;20095;-83
2022/01/03 13:58:09;;;;;;;5.82;0.80;;;;;;;;;;4906426;29;20056;-83
2022/01/03 14:00:43;;;;;;;5.10;1.35;;;;;;;;;;4905903;29;20059;-83
2022/01/03 14:03:15;;;;;;;2.90;0.47;;;;;;;;;;4905262;29;20529;-84
2022/01/03 14:05:42;;;;;;;2.30;0.30;;;;;;;;;;4905407;29;20056;-84
2022/01/03 14:08:10;;;;;;;4.32;0.60;;;;;;;;;;4889195;29;20099;-85
2022/01/03 14:10:48;;;;;;;2.60;0.40;;;;;;;;;;4907226;29;20079;-84
2022/01/03 14:13:23;;;;;;;2.38;0.40;;;;;;;;;;4888465;29;20092;-84
2022/01/03 14:16:12;;;;;;;1.77;0.50;;;;;;;;;;4903614;29;20092;-84
2022/01/03 14:18:45;;;;;;;3.58;0.60;;;;;;;;;;4909558;29;20048;-83
2022/01/03 14:21:30;;;;;;;2.55;0.80;;;;;;;;;;4913424;29;20453;-84
2022/01/03 14:24:05;;;;;;;4.38;0.50;;;;;;;;;;4910515;29;20056;-84
2022/01/03 14:26:32;;;;;;;3.08;0.60;;;;;;;;;;4912818;29;20119;-84
2022/01/03 14:29:02;;;;;;;3.45;0.80;;;;;;;;;;4895145;29;20131;-85
2022/01/03 14:31:39;;;;;;;3.78;0.63;;;;;;;;;;4913866;29;20560;-85
2022/01/03 14:34:06;;;;;;;4.53;0.50;;;;;;;;;;4912828;29;20048;-85
2022/01/03 14:36:38;;;;;;;1.33;0.43;;;;;;;;;;4897572;29;20055;-84
2022/01/03 14:39:05;;;;;;;2.75;0.70;;;;;;;;;;4913193;29;20052;-85
2022/01/03 14:41:31;;;;;;;4.20;0.50;;;;;;;;;;4913889;29;20107;-84
2022/01/03 14:44:02;;;;;;;5.63;1.20;;;;;;;;;;4913034;29;20202;-84
2022/01/03 14:46:39;;;;;;;5.30;0.70;;;;;;;;;;4913617;29;20103;-84
2022/01/03 14:49:08;;;;;;;4.88;1.00;;;;;;;;;;4913300;29;20549;-83
2022/01/03 14:51:39;;;;;;;;;;;;;;;;;;4908488;29;20056;-84
2022/01/03 14:54:36;;;;;;;5.32;0.68;;;;;;;;;;4913385;29;19927;-85
2022/01/03 14:57:22;;;;;;;6.28;0.85;;;;;;;;;;4893717;29;20431;-85
2022/01/03 14:59:49;;;;;;;6.20;1.40;;;;;;;;;;4911966;29;20054;-84
2022/01/03 15:02:15;;;;;;;6.90;1.13;;;;;;;;;;4911413;29;20143;-84
2022/01/03 15:04:42;;;;;;;5.05;0.77;;;;;;;;;;4912297;29;20108;-84
2022/01/03 15:07:28;;;;;;;3.92;0.50;;;;;;;;;;4912934;29;20465;-84
2022/01/03 15:09:57;;;;;;;4.70;0.80;;;;;;;;;;4908960;29;20417;-84
2022/01/03 15:12:45;;;;;;;6.03;1.08;;;;;;;;;;4909923;29;20589;-84
2022/01/03 15:15:11;;;;;;;8.23;1.17;;;;;;;;;;4912126;29;20123;-82
2022/01/03 15:17:39;;;;;;;4.63;0.77;;;;;;;;;;4912222;29;20300;-84
2022/01/03 15:20:08;;;;;;;3.88;0.90;;;;;;;;;;4910070;29;20100;-83
2022/01/03 15:22:40;;;;;;;5.28;1.30;;;;;;;;;;4907397;29;20052;-83
2022/01/03 15:25:07;;;;;;;6.07;1.52;;;;;;;;;;4895865;29;20372;-84
2022/01/03 15:27:34;;;;;;;17.33;13.73;;;;;;;;;;4908836;29;20096;-83
2022/01/03 15:30:01;;;;;;;63.53;44.15;;;;;;;;;;4906845;29;20055;-84
2022/01/03 15:32:27;;;;;;;56.20;36.60;;;;;;;;;;4909608;29;20429;-84
2022/01/03 15:34:54;;;;;;;15.48;9.27;;;;;;;;;;4912351;29;20052;-83
2022/01/03 15:37:20;;;;;;;14.63;7.90;;;;;;;;;;4909163;29;20473;-84
2022/01/03 15:39:47;;;;;;;42.47;28.13;;;;;;;;;;4910101;29;20055;-84
2022/01/03 15:42:14;;;;;;;22.67;13.68;;;;;;;;;;4909291;29;20044;-83
2022/01/03 15:44:40;;;;;;;9.00;4.18;;;;;;;;;;4907706;29;20044;-83
2022/01/03 15:47:08;;;;;;;18.63;7.10;;;;;;;;;;4906553;29;20096;-83
2022/01/03 15:49:34;;;;;;;12.27;3.03;;;;;;;;;;4905765;29;20055;-83
2022/01/03 15:52:02;;;;;;;23.45;11.30;;;;;;;;;;4907259;29;20049;-84
2022/01/03 15:54:31;;;;;;;24.08;13.32;;;;;;;;;;4904551;29;20430;-83
2022/01/03 15:57:00;;;;;;;9.30;2.65;;;;;;;;;;4908490;29;20067;-82
2022/01/03 15:59:27;;;;;;;8.18;2.83;;;;;;;;;;4904913;29;20056;-82
2022/01/03 16:01:54;;;;;;;7.70;1.55;;;;;;;;;;4909967;29;20107;-83
2022/01/03 16:04:22;;;;;;;6.30;1.30;;;;;;;;;;4905818;29;20143;-82
2022/01/03 16:06:50;;;;;;;5.43;1.03;;;;;;;;;;4908203;29;20210;-83
2022/01/03 16:09:19;;;;;;;5.22;1.60;;;;;;;;;;4891580;29;20051;-83
2022/01/03 16:11:48;;;;;;;9.73;1.70;;;;;;;;;;4905216;29;20124;-83
2022/01/03 16:14:15;;;;;;;5.43;1.38;;;;;;;;;;4904178;29;20460;-82
2022/01/03 16:16:42;;;;;;;4.93;1.23;;;;;;;;;;4905908;29;20098;-83
2022/01/03 16:19:09;;;;;;;9.15;1.35;;;;;;;;;;4905422;29;20056;-83
2022/01/03 16:21:35;;;;;;;6.28;1.13;;;;;;;;;;4908064;29;20048;-81
2022/01/03 16:24:02;;;;;;;7.85;1.58;;;;;;;;;;4891795;29;20052;-82
2022/01/03 16:26:30;;;;;;;8.73;1.48;;;;;;;;;;4904964;29;20076;-82
2022/01/03 16:29:09;;;;;;;7.65;1.50;;;;;;;;;;4909157;29;20113;-82
2022/01/03 16:31:36;;;;;;;6.47;1.30;;;;;;;;;;4908153;29;20040;-82
2022/01/03 16:34:04;;;;;;;6.00;1.17;;;;;;;;;;4907657;29;20398;-83
2022/01/03 16:36:32;;;;;;;7.60;1.50;;;;;;;;;;4891275;29;20067;-83
2022/01/03 16:39:00;;;;;;;4.75;1.90;;;;;;;;;;4905916;29;20044;-83
2022/01/03 16:41:27;;;;;;;5.50;1.83;;;;;;;;;;4909891;29;20469;-83
2022/01/03 16:43:54;;;;;;;7.88;1.92;;;;;;;;;;4912249;29;20123;-83
2022/01/03 16:46:21;;;;;;;7.22;1.65;;;;;;;;;;4907441;29;20048;-82
2022/01/03 16:48:48;;;;;;;6.65;1.70;;;;;;;;;;4904819;29;20041;-83
2022/01/03 16:51:15;;;;;;;12.50;1.92;;;;;;;;;;4911680;29;20048;-84
2022/01/03 16:53:42;;;;;;;9.10;1.67;;;;;;;;;;4911679;29;20087;-82
2022/01/03 16:56:09;;;;;;;7.82;1.95;;;;;;;;;;4911154;29;20048;-82
2022/01/03 16:58:37;;;;;;;8.77;2.10;;;;;;;;;;4905535;29;20048;-83
2022/01/03 17:01:05;;;;;;;6.35;2.33;;;;;;;;;;4906296;29;20057;-83
2022/01/03 17:03:33;;;;;;;13.48;3.13;;;;;;;;;;4889962;29;20127;-83
2022/01/03 17:06:00;;;;;;;8.37;2.93;;;;;;;;;;4908308;29;20052;-83
2022/01/03 17:08:27;;;;;;;9.30;3.40;;;;;;;;;;4909699;29;20048;-83
2022/01/03 17:10:55;;;;;;;7.70;2.97;;;;;;;;;;4909582;29;20537;-83
2022/01/03 17:13:21;;;;;;;7.53;2.53;;;;;;;;;;4907628;29;20135;-84
2022/01/03 17:15:48;;;;;;;7.18;2.20;;;;;;;;;;4909314;29;20048;-84
2022/01/03 17:18:14;;;;;;;5.57;2.40;;;;;;;;;;4905730;29;20041;-84
2022/01/03 17:20:41;;;;;;;5.28;2.45;;;;;;;;;;4908996;29;20044;-82
2022/01/03 17:23:08;;;;;;;9.43;5.53;;;;;;;;;;4891728;29;20531;-83
2022/01/03 17:25:39;;;;;;;11.55;7.00;;;;;;;;;;4909754;29;20044;-82
2022/01/03 17:28:07;;;;;;;20.90;13.15;;;;;;;;;;4887300;29;20080;-83
2022/01/03 17:30:35;;;;;;;31.80;19.20;;;;;;;;;;4906981;29;20497;-84
2022/01/03 17:33:02;;;;;;;15.10;10.65;;;;;;;;;;4907725;29;20556;-82
2022/01/03 17:35:29;;;;;;;14.13;11.43;;;;;;;;;;4907393;29;20048;-83
2022/01/03 17:37:56;;;;;;;18.63;12.40;;;;;;;;;;4907506;29;20548;-82
2022/01/03 17:40:23;;;;;;;12.30;7.30;;;;;;;;;;4906826;29;20521;-83
2022/01/03 17:42:49;;;;;;;13.02;7.68;;;;;;;;;;4907314;29;20111;-84
2022/01/03 17:45:16;;;;;;;12.93;9.07;;;;;;;;;;4907234;29;20382;-83
2022/01/03 17:47:43;;;;;;;8.75;7.35;;;;;;;;;;4908005;29;20052;-83
2022/01/03 17:50:10;;;;;;;13.30;8.68;;;;;;;;;;4890514;29;20048;-84
2022/01/03 17:52:37;;;;;;;11.02;6.72;;;;;;;;;;4892698;29;20063;-84
2022/01/03 17:55:04;;;;;;;11.23;6.93;;;;;;;;;;4910796;29;20056;-83
2022/01/03 17:57:31;;;;;;;10.05;6.97;;;;;;;;;;4893648;29;20048;-82
2022/01/03 17:59:57;;;;;;;13.73;9.52;;;;;;;;;;4891829;29;20048;-83
2022/01/03 18:02:26;;;;;;;15.48;8.88;;;;;;;;;;4906575;29;20056;-83
2022/01/03 18:04:53;;;;;;;14.73;9.65;;;;;;;;;;4908262;29;20148;-84
2022/01/03 18:07:22;;;;;;;12.85;9.35;;;;;;;;;;4907389;29;20048;-84
2022/01/03 18:09:49;;;;;;;10.32;6.25;;;;;;;;;;4908484;29;20059;-85
2022/01/03 18:12:15;;;;;;;11.75;7.50;;;;;;;;;;4910061;29;20059;-83
2022/01/03 18:14:42;;;;;;;13.77;8.15;;;;;;;;;;4894247;29;20106;-84
2022/01/03 18:17:10;;;;;;;14.00;10.02;;;;;;;;;;4893605;29;20370;-83
2022/01/03 18:19:36;;;;;;;14.32;8.10;;;;;;;;;;4911153;29;20059;-84
2022/01/03 18:22:05;;;;;;;13.57;6.50;;;;;;;;;;4909754;29;20756;-84
2022/01/03 18:24:32;;;;;;;10.65;5.70;;;;;;;;;;4908446;29;20123;-83
2022/01/03 18:27:00;;;;;;;6.65;5.18;;;;;;;;;;4907171;29;20159;-82
2022/01/03 18:29:26;;;;;;;7.50;4.55;;;;;;;;;;4885584;29;20055;-82
2022/01/03 18:31:53;;;;;;;10.55;5.10;;;;;;;;;;4910542;29;20084;-82
2022/01/03 18:34:21;;;;;;;14.68;8.85;;;;;;;;;;4908787;29;20072;-83
2022/01/03 18:36:48;;;;;;;18.83;11.23;;;;;;;;;;4906093;29;20051;-85
2022/01/03 18:39:16;;;;;;;18.85;11.30;;;;;;;;;;4888519;29;20048;-82
2022/01/03 18:41:43;;;;;;;14.93;9.48;;;;;;;;;;4907086;29;20678;-83
2022/01/03 18:44:10;;;;;;;13.88;9.35;;;;;;;;;;4904390;29;20056;-83
2022/01/03 18:46:37;;;;;;;15.50;8.32;;;;;;;;;;4901061;29;20141;-84
2022/01/03 18:49:05;;;;;;;14.75;8.30;;;;;;;;;;4890228;29;20891;-84
2022/01/03 18:51:31;;;;;;;13.93;8.32;;;;;;;;;;4910001;29;20040;-84
2022/01/03 18:53:59;;;;;;;18.33;11.65;;;;;;;;;;4906949;29;20426;-85
2022/01/03 18:56:26;;;;;;;15.68;9.90;;;;;;;;;;4895320;29;20052;-84
2022/01/03 18:58:54;;;;;;;16.45;10.20;;;;;;;;;;4902586;29;20067;-85
2022/01/03 19:01:21;;;;;;;19.10;11.63;;;;;;;;;;4908392;29;20048;-84
2022/01/03 19:03:48;;;;;;;21.45;14.18;;;;;;;;;;4891656;29;20036;-82
2022/01/03 19:06:15;;;;;;;26.27;14.60;;;;;;;;;;4892349;29;20050;-84
2022/01/03 19:08:41;;;;;;;22.65;13.98;;;;;;;;;;4892356;29;20052;-85
2022/01/03 19:11:08;;;;;;;24.00;14.18;;;;;;;;;;4908822;29;20158;-84
2022/01/03 19:13:35;;;;;;;22.30;14.50;;;;;;;;;;4889457;29;20112;-82
2022/01/03 19:16:05;;;;;;;19.88;12.93;;;;;;;;;;4907450;29;20409;-82
2022/01/03 19:18:31;;;;;;;21.17;10.52;;;;;;;;;;4887572;29;20563;-84
2022/01/03 19:20:58;;;;;;;21.17;9.38;;;;;;;;;;4908521;29;20100;-82
2022/01/03 19:23:25;;;;;;;25.05;12.38;;;;;;;;;;4907882;29;20056;-83
2022/01/03 19:25:52;;;;;;;23.45;8.70;;;;;;;;;;4905944;29;20100;-83
2022/01/03 19:28:18;;;;;;;11.45;6.68;;;;;;;;;;4905945;29;20233;-83
2022/01/03 19:30:45;;;;;;;7.80;5.00;;;;;;;;;;4906472;29;20103;-82
2022/01/03 19:38:29;;;;;;;5.50;3.55;;;;;;;;;;4905930;29;20067;-83
2022/01/03 19:40:57;;;;;;;;;;;;;;;;;;4907105;29;20059;-82
2022/01/03 19:43:24;;;;;;;7.22;4.50;;;;;;;;;;4905110;29;19927;-83
2022/01/03 19:45:53;;;;;;;9.20;5.93;;;;;;;;;;4907334;29;20067;-84
2022/01/03 19:48:20;;;;;;;9.05;6.32;;;;;;;;;;4902355;29;20052;-81
2022/01/03 19:50:51;;;;;;;8.27;6.47;;;;;;;;;;4905079;29;20051;-82
2022/01/03 19:53:19;;;;;;;11.40;7.70;;;;;;;;;;4905384;29;20163;-83
2022/01/03 19:55:47;;;;;;;12.57;8.50;;;;;;;;;;4906179;29;20063;-82
2022/01/03 19:58:14;;;;;;;12.27;8.50;;;;;;;;;;4908277;29;20803;-83
2022/01/03 20:00:41;;;;;;;19.23;9.65;;;;;;;;;;4908133;29;20060;-83
2022/01/03 20:03:09;;;;;;;22.52;16.73;;;;;;;;;;4907207;29;20054;-85
2022/01/03 20:05:42;;;;;;;17.13;9.45;;;;;;;;;;4907808;29;20064;-84
2022/01/03 20:08:12;;;;;;;15.18;8.63;;;;;;;;;;4908140;29;20052;-85
2022/01/03 20:10:40;;;;;;;14.90;8.10;;;;;;;;;;4908830;29;20048;-84
2022/01/03 20:13:07;;;;;;;9.57;6.40;;;;;;;;;;4908681;29;20548;-84
2022/01/03 20:15:34;;;;;;;11.02;6.20;;;;;;;;;;4892520;29;20052;-85
2022/01/03 20:18:03;;;;;;;10.05;5.93;;;;;;;;;;4909928;29;20040;-84
2022/01/03 20:20:33;;;;;;;11.10;5.55;;;;;;;;;;4890705;29;20063;-84
2022/01/03 20:23:01;;;;;;;7.65;4.90;;;;;;;;;;4908594;29;20047;-82
2022/01/03 20:25:31;;;;;;;5.57;4.20;;;;;;;;;;4901454;29;20059;-84
2022/01/03 20:27:59;;;;;;;7.88;5.05;;;;;;;;;;4909038;29;20044;-82
2022/01/03 20:30:27;;;;;;;7.65;4.80;;;;;;;;;;4905071;29;20055;-84
2022/01/03 20:32:54;;;;;;;6.85;4.50;;;;;;;;;;4890538;29;20500;-83
2022/01/03 20:35:22;;;;;;;7.18;4.53;;;;;;;;;;4902878;29;21445;-84
2022/01/03 20:37:49;;;;;;;7.28;4.50;;;;;;;;;;4906248;29;20517;-83
2022/01/03 20:40:16;;;;;;;6.50;4.50;;;;;;;;;;4905863;29;20588;-85
2022/01/03 20:42:43;;;;;;;7.97;4.95;;;;;;;;;;4907020;29;20119;-84
2022/01/03 20:45:10;;;;;;;6.55;4.65;;;;;;;;;;4903156;29;20599;-83
2022/01/03 20:47:38;;;;;;;6.22;4.60;;;;;;;;;;4907957;29;20071;-86
2022/01/03 20:50:06;;;;;;;5.75;3.80;;;;;;;;;;4900864;29;20128;-84
2022/01/03 20:52:33;;;;;;;5.38;4.40;;;;;;;;;;4907649;29;20075;-85
2022/01/03 20:55:00;;;;;;;6.05;4.07;;;;;;;;;;4906108;29;20056;-84
2022/01/03 20:57:28;;;;;;;14.40;4.70;;;;;;;;;;4904898;29;20798;-85
2022/01/03 20:59:55;;;;;;;4.43;3.40;;;;;;;;;;4902818;29;20435;-83
2022/01/03 21:02:21;;;;;;;5.75;3.85;;;;;;;;;;4904735;29;20044;-84
2022/01/03 21:04:48;;;;;;;5.10;3.20;;;;;;;;;;4904703;29;20083;-83
2022/01/03 21:07:15;;;;;;;5.07;3.50;;;;;;;;;;4889052;29;20442;-84
2022/01/03 21:09:43;;;;;;;5.63;3.78;;;;;;;;;;4890673;29;20406;-84
2022/01/03 21:12:11;;;;;;;4.63;3.35;;;;;;;;;;4905991;29;20056;-83
2022/01/03 21:14:38;;;;;;;5.22;3.47;;;;;;;;;;4906762;29;20641;-84
2022/01/03 21:17:05;;;;;;;4.28;3.58;;;;;;;;;;4889778;29;20059;-83
2022/01/03 21:19:32;;;;;;;4.93;4.00;;;;;;;;;;4889778;29;20059;-84
2022/01/03 21:21:59;;;;;;;7.40;4.70;;;;;;;;;;4906875;29;20079;-85
2022/01/03 21:24:26;;;;;;;6.57;4.68;;;;;;;;;;4903264;29;20055;-84
2022/01/03 21:26:52;;;;;;;6.85;5.57;;;;;;;;;;4907409;29;20056;-85
2022/01/03 21:29:19;;;;;;;7.40;5.88;;;;;;;;;;4907926;29;20072;-83
2022/01/03 21:31:46;;;;;;;6.40;5.30;;;;;;;;;;4906846;29;20055;-82
2022/01/03 21:34:14;;;;;;;6.63;4.88;;;;;;;;;;4910581;29;20055;-81
2022/01/03 21:36:41;;;;;;;5.72;4.40;;;;;;;;;;4908393;29;20099;-81
2022/01/03 21:39:08;;;;;;;6.40;4.80;;;;;;;;;;4910203;29;20108;-81
2022/01/03 21:41:35;;;;;;;5.30;4.28;;;;;;;;;;4911963;29;20052;-83
2022/01/03 21:44:01;;;;;;;7.25;3.97;;;;;;;;;;4911769;29;20052;-83
2022/01/03 21:46:28;;;;;;;6.22;4.60;;;;;;;;;;4910422;29;20126;-82
2022/01/03 21:48:55;;;;;;;6.78;4.63;;;;;;;;;;4911238;29;20047;-83
2022/01/03 21:51:21;;;;;;;5.53;4.40;;;;;;;;;;4910690;29;20040;-82
2022/01/03 21:53:48;;;;;;;6.70;4.53;;;;;;;;;;4911400;29;20071;-83
2022/01/03 21:56:15;;;;;;;7.93;5.18;;;;;;;;;;4911402;29;20056;-82
2022/01/03 21:58:41;;;;;;;8.88;5.10;;;;;;;;;;4911960;29;20520;-82
2022/01/03 22:01:08;;;;;;;9.30;5.97;;;;;;;;;;4910503;29;20076;-81
2022/01/03 22:03:35;;;;;;;11.00;5.68;;;;;;;;;;4910304;29;20524;-83
2022/01/03 22:06:01;;;;;;;12.30;6.13;;;;;;;;;;4912044;29;20103;-80
2022/01/03 22:08:28;;;;;;;12.40;5.95;;;;;;;;;;4909430;29;20052;-81
2022/01/03 22:10:55;;;;;;;12.55;6.20;;;;;;;;;;4911515;29;20052;-82
2022/01/03 22:13:22;;;;;;;13.13;6.25;;;;;;;;;;4910318;29;20056;-81
2022/01/03 22:15:49;;;;;;;9.60;6.05;;;;;;;;;;4911033;29;20155;-81
2022/01/03 22:18:16;;;;;;;12.10;6.57;;;;;;;;;;4910143;29;20106;-81
2022/01/03 22:20:43;;;;;;;12.45;6.32;;;;;;;;;;4911173;29;20060;-82
2022/01/03 22:23:10;;;;;;;14.70;6.78;;;;;;;;;;4910613;29;20470;-83